Time;durP1;ratioP1;P1;durP2;ratioP2;P2;SDS_P1;SDS_P2;PMS_P1;PMS_P2;Temp;Humidity;BMP_temperature;BMP_pressure;BME280_temperature;BME280_humidity;BME280_pressure;Samples;Min_cycle;Max_cycle;Signal;HPM_P1;HPM_P2
2024/04/17 00:00:11;;;;;;;0.40;0.40;;;;;;;;;;5378854;26;80143;-58
2024/04/17 00:02:36;;;;;;;2.30;0.50;;;;;;;;;;5379185;26;80690;-56
2024/04/17 00:05:01;;;;;;;0.30;0.30;;;;;;;;;;5383114;26;81207;-59
2024/04/17 00:07:26;;;;;;;0.50;0.40;;;;;;;;;;5383252;26;81539;-59
2024/04/17 00:09:51;;;;;;;0.57;0.50;;;;;;;;;;5370529;26;81133;-60
2024/04/17 00:12:17;;;;;;;0.50;0.20;;;;;;;;;;5368600;26;81636;-56
2024/04/17 00:14:42;;;;;;;0.60;0.40;;;;;;;;;;5386383;26;80183;-59
2024/04/17 00:17:07;;;;;;;0.50;0.50;;;;;;;;;;5378937;26;80037;-60
2024/04/17 00:19:32;;;;;;;2.30;0.40;;;;;;;;;;5380973;26;81320;-58
2024/04/17 00:21:58;;;;;;;1.50;0.50;;;;;;;;;;5378742;26;80444;-59
2024/04/17 00:24:23;;;;;;;1.90;0.33;;;;;;;;;;5378845;26;81020;-59
2024/04/17 00:26:48;;;;;;;1.07;0.37;;;;;;;;;;5374537;26;80753;-57
2024/04/17 00:29:13;;;;;;;0.40;0.40;;;;;;;;;;5377418;26;82062;-59
2024/04/17 00:31:39;;;;;;;0.30;0.30;;;;;;;;;;5380454;26;80570;-59
2024/04/17 00:34:04;;;;;;;1.13;0.50;;;;;;;;;;5385200;25;81345;-61
2024/04/17 00:36:30;;;;;;;0.50;0.20;;;;;;;;;;5378419;26;80645;-56
2024/04/17 00:38:55;;;;;;;0.55;0.35;;;;;;;;;;5376623;26;81132;-58
2024/04/17 00:41:20;;;;;;;0.33;0.23;;;;;;;;;;5377388;26;81074;-58
2024/04/17 00:43:45;;;;;;;0.63;0.33;;;;;;;;;;5383627;26;80341;-59
2024/04/17 00:46:11;;;;;;;1.20;0.60;;;;;;;;;;5387071;26;79873;-63
2024/04/17 00:48:37;;;;;;;1.30;0.50;;;;;;;;;;5376919;26;80751;-60
2024/04/17 00:51:02;;;;;;;0.27;0.23;;;;;;;;;;5385290;25;80837;-59
2024/04/17 00:53:28;;;;;;;5.30;0.50;;;;;;;;;;5379807;26;81092;-58
2024/04/17 00:55:55;;;;;;;0.20;0.20;;;;;;;;;;5387660;26;80890;-60
2024/04/17 00:58:21;;;;;;;1.30;0.40;;;;;;;;;;5385133;26;80939;-61
2024/04/17 01:00:47;;;;;;;1.75;0.40;;;;;;;;;;5385156;26;80450;-60
2024/04/17 01:03:12;;;;;;;0.70;0.50;;;;;;;;;;5387829;25;80578;-56
2024/04/17 01:05:37;;;;;;;0.97;0.47;;;;;;;;;;5381368;26;80812;-61
2024/04/17 01:08:04;;;;;;;1.03;0.60;;;;;;;;;;5376296;26;80485;-58
2024/04/17 01:10:29;;;;;;;1.80;0.50;;;;;;;;;;5380755;25;79526;-59
2024/04/17 01:12:54;;;;;;;0.50;0.40;;;;;;;;;;5387825;25;81545;-58
2024/04/17 01:15:21;;;;;;;0.30;0.30;;;;;;;;;;5377443;26;80827;-57
2024/04/17 01:17:47;;;;;;;0.70;0.40;;;;;;;;;;5378760;26;81250;-60
2024/04/17 01:20:12;;;;;;;0.65;0.32;;;;;;;;;;5379188;25;80244;-59
2024/04/17 01:22:37;;;;;;;1.40;0.63;;;;;;;;;;5377819;26;80721;-56
2024/04/17 01:25:03;;;;;;;3.80;0.40;;;;;;;;;;5380380;25;80534;-57
2024/04/17 01:27:28;;;;;;;1.70;0.50;;;;;;;;;;5389305;26;82233;-59
2024/04/17 01:29:53;;;;;;;0.87;0.40;;;;;;;;;;5385685;26;80452;-60
2024/04/17 01:32:18;;;;;;;0.17;0.17;;;;;;;;;;5383110;26;80376;-60
2024/04/17 01:34:44;;;;;;;0.40;0.30;;;;;;;;;;5386403;26;79590;-60
2024/04/17 01:37:09;;;;;;;0.30;0.30;;;;;;;;;;5390743;26;80940;-60
2024/04/17 01:39:34;;;;;;;0.20;0.20;;;;;;;;;;5374319;26;80559;-59
2024/04/17 01:41:59;;;;;;;1.33;0.30;;;;;;;;;;5377745;26;82325;-58
2024/04/17 01:44:24;;;;;;;0.30;0.30;;;;;;;;;;5376808;25;81938;-59
2024/04/17 01:46:50;;;;;;;0.67;0.43;;;;;;;;;;5369040;26;80713;-60
2024/04/17 01:49:15;;;;;;;0.57;0.40;;;;;;;;;;5377741;26;80196;-60
2024/04/17 01:51:40;;;;;;;0.70;0.30;;;;;;;;;;5384018;26;80942;-59
2024/04/17 01:54:05;;;;;;;0.40;0.40;;;;;;;;;;5387423;26;82162;-58
2024/04/17 01:56:30;;;;;;;0.60;0.40;;;;;;;;;;5382441;26;80658;-60
2024/04/17 01:58:56;;;;;;;1.00;0.57;;;;;;;;;;5385258;26;80023;-58
2024/04/17 02:01:21;;;;;;;0.50;0.40;;;;;;;;;;5382002;26;81252;-60
2024/04/17 02:03:47;;;;;;;1.90;0.50;;;;;;;;;;5375795;26;80446;-58
2024/04/17 02:06:13;;;;;;;1.33;0.50;;;;;;;;;;5375237;26;81933;-59
2024/04/17 02:08:38;;;;;;;0.13;0.13;;;;;;;;;;5382884;26;80726;-58
2024/04/17 02:11:05;;;;;;;3.00;0.27;;;;;;;;;;5383361;25;81392;-59
2024/04/17 02:13:30;;;;;;;0.70;0.50;;;;;;;;;;5382798;26;80803;-59
2024/04/17 02:15:59;;;;;;;0.43;0.30;;;;;;;;;;5384808;26;81713;-57
2024/04/17 02:18:24;;;;;;;0.70;0.50;;;;;;;;;;5380368;26;82104;-58
2024/04/17 02:20:50;;;;;;;0.27;0.20;;;;;;;;;;5376646;26;81343;-63
2024/04/17 02:23:15;;;;;;;0.70;0.47;;;;;;;;;;5382106;26;81319;-56
2024/04/17 02:25:40;;;;;;;0.90;0.60;;;;;;;;;;5385185;26;81802;-61
2024/04/17 02:28:05;;;;;;;0.30;0.30;;;;;;;;;;5376872;26;81121;-59
2024/04/17 02:30:31;;;;;;;0.60;0.40;;;;;;;;;;5378049;26;81129;-60
2024/04/17 02:32:56;;;;;;;0.80;0.40;;;;;;;;;;5376726;26;80763;-57
2024/04/17 02:35:21;;;;;;;0.40;0.20;;;;;;;;;;5380012;26;80046;-58
2024/04/17 02:37:46;;;;;;;0.47;0.40;;;;;;;;;;5381585;26;80317;-60
2024/04/17 02:40:12;;;;;;;0.40;0.30;;;;;;;;;;5375332;26;80983;-60
2024/04/17 02:42:37;;;;;;;0.30;0.20;;;;;;;;;;5380931;25;82916;-58
2024/04/17 02:45:02;;;;;;;0.27;0.23;;;;;;;;;;5376080;26;80564;-58
2024/04/17 02:47:28;;;;;;;1.17;0.53;;;;;;;;;;5383717;26;81502;-58
2024/04/17 02:49:53;;;;;;;0.27;0.20;;;;;;;;;;5385129;26;82576;-59
2024/04/17 02:52:18;;;;;;;0.63;0.10;;;;;;;;;;5377582;26;81137;-59
2024/04/17 02:54:43;;;;;;;0.47;0.20;;;;;;;;;;5379835;26;81279;-60
2024/04/17 02:57:08;;;;;;;0.80;0.30;;;;;;;;;;5381053;26;80387;-58
2024/04/17 02:59:34;;;;;;;0.80;0.40;;;;;;;;;;5384605;25;80609;-58
2024/04/17 03:01:59;;;;;;;0.50;0.30;;;;;;;;;;5385190;26;80271;-60
2024/04/17 03:04:24;;;;;;;0.20;0.20;;;;;;;;;;5384752;26;80835;-60
2024/04/17 03:06:49;;;;;;;0.37;0.23;;;;;;;;;;5382664;26;80600;-60
2024/04/17 03:09:14;;;;;;;1.07;0.40;;;;;;;;;;5378530;26;80188;-55
2024/04/17 03:11:40;;;;;;;0.30;0.30;;;;;;;;;;5375116;26;79393;-62
2024/04/17 03:14:05;;;;;;;0.43;0.17;;;;;;;;;;5386100;25;80206;-57
2024/04/17 03:16:30;;;;;;;0.27;0.27;;;;;;;;;;5383679;26;80743;-55
2024/04/17 03:18:55;;;;;;;0.30;0.30;;;;;;;;;;5388129;26;81838;-59
2024/04/17 03:21:21;;;;;;;0.20;0.20;;;;;;;;;;5370254;26;80956;-55
2024/04/17 03:23:46;;;;;;;0.53;0.30;;;;;;;;;;5379672;26;81657;-59
2024/04/17 03:26:11;;;;;;;0.77;0.30;;;;;;;;;;5377388;26;80473;-60
2024/04/17 03:28:36;;;;;;;0.20;0.17;;;;;;;;;;5385474;26;80706;-60
2024/04/17 03:31:01;;;;;;;0.77;0.38;;;;;;;;;;5376093;26;80211;-60
2024/04/17 03:33:27;;;;;;;0.23;0.23;;;;;;;;;;5385690;26;81275;-56
2024/04/17 03:35:58;;;;;;;0.30;0.23;;;;;;;;;;5380869;26;81645;-61
2024/04/17 03:38:24;;;;;;;0.80;0.30;;;;;;;;;;5371162;26;81042;-59
2024/04/17 03:40:49;;;;;;;0.60;0.30;;;;;;;;;;5381609;26;80573;-58
2024/04/17 03:43:15;;;;;;;0.20;0.20;;;;;;;;;;5377057;25;81180;-60
2024/04/17 03:45:40;;;;;;;0.50;0.30;;;;;;;;;;5379063;26;80823;-63
2024/04/17 03:48:05;;;;;;;0.40;0.30;;;;;;;;;;5382859;26;80363;-60
2024/04/17 03:50:31;;;;;;;0.10;0.10;;;;;;;;;;5373208;26;80804;-61
2024/04/17 03:52:56;;;;;;;1.50;0.23;;;;;;;;;;5384188;25;81007;-56
2024/04/17 03:55:21;;;;;;;0.30;0.30;;;;;;;;;;5376930;25;80243;-60
2024/04/17 03:57:46;;;;;;;0.30;0.30;;;;;;;;;;5389023;26;80591;-58
2024/04/17 04:00:12;;;;;;;0.17;0.17;;;;;;;;;;5379353;26;79809;-61
2024/04/17 04:02:37;;;;;;;0.20;0.20;;;;;;;;;;5374562;26;80613;-60
2024/04/17 04:05:03;;;;;;;0.10;0.10;;;;;;;;;;5373706;25;82770;-60
2024/04/17 04:07:28;;;;;;;0.30;0.20;;;;;;;;;;5380302;25;82123;-59
2024/04/17 04:09:53;;;;;;;0.20;0.20;;;;;;;;;;5386011;25;80245;-58
2024/04/17 04:12:19;;;;;;;0.27;0.27;;;;;;;;;;5377323;26;80882;-58
2024/04/17 04:14:44;;;;;;;0.30;0.30;;;;;;;;;;5383238;26;80767;-60
2024/04/17 04:17:09;;;;;;;1.47;0.20;;;;;;;;;;5375429;26;80204;-58
2024/04/17 04:19:35;;;;;;;1.60;0.50;;;;;;;;;;5378715;25;80538;-60
2024/04/17 04:22:00;;;;;;;0.40;0.10;;;;;;;;;;5380122;26;81782;-60
2024/04/17 04:24:25;;;;;;;1.40;0.20;;;;;;;;;;5380550;26;81488;-60
2024/04/17 04:26:50;;;;;;;1.97;0.20;;;;;;;;;;5378643;25;80794;-60
2024/04/17 04:29:15;;;;;;;2.30;0.30;;;;;;;;;;5380440;26;80763;-57
2024/04/17 04:31:41;;;;;;;0.30;0.30;;;;;;;;;;5379284;25;82804;-59
2024/04/17 04:34:06;;;;;;;0.50;0.40;;;;;;;;;;5371205;26;81765;-59
2024/04/17 04:36:31;;;;;;;0.25;0.25;;;;;;;;;;5377458;26;81916;-57
2024/04/17 04:38:56;;;;;;;0.30;0.30;;;;;;;;;;5385518;26;81823;-56
2024/04/17 04:41:22;;;;;;;0.10;0.10;;;;;;;;;;5379004;26;80501;-57
2024/04/17 04:43:47;;;;;;;0.73;0.13;;;;;;;;;;5381099;26;80179;-59
2024/04/17 04:46:12;;;;;;;0.70;0.40;;;;;;;;;;5382544;26;80292;-59
2024/04/17 04:48:37;;;;;;;0.30;0.30;;;;;;;;;;5381700;26;80484;-59
2024/04/17 04:51:03;;;;;;;0.30;0.30;;;;;;;;;;5385584;26;80679;-57
2024/04/17 04:53:28;;;;;;;0.20;0.20;;;;;;;;;;5375661;26;80912;-57
2024/04/17 04:55:53;;;;;;;1.07;0.67;;;;;;;;;;5366994;26;82189;-55
2024/04/17 04:58:19;;;;;;;1.23;0.63;;;;;;;;;;5381177;26;80872;-59
2024/04/17 05:00:44;;;;;;;0.70;0.50;;;;;;;;;;5376024;26;80106;-58
2024/04/17 05:03:09;;;;;;;0.83;0.33;;;;;;;;;;5386076;25;80557;-59
2024/04/17 05:05:34;;;;;;;2.30;0.50;;;;;;;;;;5377766;26;80414;-57
2024/04/17 05:07:59;;;;;;;3.70;0.60;;;;;;;;;;5384570;26;80594;-59
2024/04/17 05:10:25;;;;;;;1.10;0.40;;;;;;;;;;5382982;26;80695;-56
2024/04/17 05:12:50;;;;;;;1.33;0.40;;;;;;;;;;5385957;25;80985;-60
2024/04/17 05:15:15;;;;;;;0.83;0.53;;;;;;;;;;5380453;26;80806;-59
2024/04/17 05:17:40;;;;;;;2.70;0.93;;;;;;;;;;5378835;26;80633;-59
2024/04/17 05:20:06;;;;;;;1.07;0.33;;;;;;;;;;5379905;25;81088;-59
2024/04/17 05:22:32;;;;;;;0.77;0.47;;;;;;;;;;5377917;26;82635;-56
2024/04/17 05:24:57;;;;;;;0.67;0.47;;;;;;;;;;5385462;26;81593;-59
2024/04/17 05:27:22;;;;;;;0.93;0.30;;;;;;;;;;5382494;26;81481;-58
2024/04/17 05:29:47;;;;;;;0.70;0.47;;;;;;;;;;5386165;25;80084;-58
2024/04/17 05:32:12;;;;;;;3.13;0.50;;;;;;;;;;5384813;26;80437;-58
2024/04/17 05:34:38;;;;;;;3.73;0.60;;;;;;;;;;5386414;26;82299;-57
2024/04/17 05:37:03;;;;;;;1.37;0.53;;;;;;;;;;5373554;26;81753;-59
2024/04/17 05:39:32;;;;;;;1.77;0.90;;;;;;;;;;5377117;25;80287;-59
2024/04/17 05:41:57;;;;;;;1.15;0.60;;;;;;;;;;5374705;26;80999;-55
2024/04/17 05:44:22;;;;;;;2.27;0.53;;;;;;;;;;5379688;26;81281;-59
2024/04/17 05:46:47;;;;;;;1.60;0.70;;;;;;;;;;5379008;26;80434;-59
2024/04/17 05:49:12;;;;;;;2.80;0.73;;;;;;;;;;5390557;25;81240;-58
2024/04/17 05:51:38;;;;;;;2.73;0.80;;;;;;;;;;5380509;26;81291;-56
2024/04/17 05:54:03;;;;;;;2.77;0.87;;;;;;;;;;5375777;26;82010;-57
2024/04/17 05:56:28;;;;;;;7.03;1.27;;;;;;;;;;5375480;26;80276;-58
2024/04/17 05:58:53;;;;;;;7.60;3.33;;;;;;;;;;5385492;26;82912;-58
2024/04/17 06:01:19;;;;;;;9.43;4.53;;;;;;;;;;5378365;26;80634;-57
2024/04/17 06:03:44;;;;;;;4.17;2.60;;;;;;;;;;5383985;25;81012;-54
2024/04/17 06:06:09;;;;;;;8.37;2.67;;;;;;;;;;5375611;26;80478;-54
2024/04/17 06:08:34;;;;;;;6.40;2.23;;;;;;;;;;5384739;26;81979;-56
2024/04/17 06:10:59;;;;;;;4.27;1.73;;;;;;;;;;5376032;26;80544;-60
2024/04/17 06:13:25;;;;;;;5.73;1.87;;;;;;;;;;5384425;26;80524;-57
2024/04/17 06:15:50;;;;;;;5.80;2.03;;;;;;;;;;5385103;26;80886;-60
2024/04/17 06:18:15;;;;;;;3.37;1.77;;;;;;;;;;5378593;26;80066;-62
2024/04/17 06:20:41;;;;;;;6.63;1.50;;;;;;;;;;5384581;25;81139;-59
2024/04/17 06:23:06;;;;;;;4.78;1.45;;;;;;;;;;5385115;26;80274;-58
2024/04/17 06:25:31;;;;;;;6.03;1.40;;;;;;;;;;5386233;26;79805;-58
2024/04/17 06:27:57;;;;;;;2.77;1.13;;;;;;;;;;5389390;26;80492;-57
2024/04/17 06:30:22;;;;;;;3.93;1.50;;;;;;;;;;5381865;25;80563;-60
2024/04/17 06:32:47;;;;;;;3.50;1.13;;;;;;;;;;5381293;26;81201;-60
2024/04/17 06:35:12;;;;;;;9.83;1.33;;;;;;;;;;5389446;26;80974;-60
2024/04/17 06:37:38;;;;;;;1.80;0.90;;;;;;;;;;5384012;26;81634;-59
2024/04/17 06:40:04;;;;;;;5.80;1.27;;;;;;;;;;5386881;25;80225;-57
2024/04/17 06:42:29;;;;;;;4.20;1.00;;;;;;;;;;5380026;26;83473;-58
2024/04/17 06:44:54;;;;;;;2.70;1.00;;;;;;;;;;5384251;25;81047;-56
2024/04/17 06:47:20;;;;;;;1.60;1.10;;;;;;;;;;5383958;25;80406;-58
2024/04/17 06:49:46;;;;;;;3.00;1.15;;;;;;;;;;5388676;25;81174;-57
2024/04/17 06:52:11;;;;;;;3.30;1.17;;;;;;;;;;5384305;25;81378;-60
2024/04/17 06:54:37;;;;;;;4.77;1.30;;;;;;;;;;5377447;26;81785;-59
2024/04/17 06:57:02;;;;;;;5.37;1.37;;;;;;;;;;5387817;26;81361;-58
2024/04/17 06:59:27;;;;;;;2.77;0.73;;;;;;;;;;5381373;26;81912;-60
2024/04/17 07:01:52;;;;;;;5.03;1.10;;;;;;;;;;5379029;26;80636;-57
2024/04/17 07:04:18;;;;;;;1.37;1.00;;;;;;;;;;5375904;26;84004;-58
2024/04/17 07:06:43;;;;;;;1.93;0.90;;;;;;;;;;5389085;26;81208;-59
2024/04/17 07:09:08;;;;;;;2.33;1.07;;;;;;;;;;5382772;25;80731;-58
2024/04/17 07:11:33;;;;;;;1.87;0.97;;;;;;;;;;5391571;26;80243;-57
2024/04/17 07:13:59;;;;;;;3.08;1.33;;;;;;;;;;5375596;26;80569;-59
2024/04/17 07:16:24;;;;;;;2.17;0.90;;;;;;;;;;5375892;25;80580;-56
2024/04/17 07:18:49;;;;;;;2.80;0.90;;;;;;;;;;5385364;25;81139;-57
2024/04/17 07:21:14;;;;;;;2.37;0.87;;;;;;;;;;5377059;25;81681;-61
2024/04/17 07:23:40;;;;;;;3.13;1.00;;;;;;;;;;5383215;26;83457;-59
2024/04/17 07:26:05;;;;;;;2.77;1.00;;;;;;;;;;5389112;26;80783;-57
2024/04/17 07:28:30;;;;;;;4.03;1.10;;;;;;;;;;5399109;26;80377;-58
2024/04/17 07:30:55;;;;;;;1.30;1.07;;;;;;;;;;5380675;26;82568;-58
2024/04/17 07:33:20;;;;;;;3.50;1.27;;;;;;;;;;5385957;26;80710;-59
2024/04/17 07:35:46;;;;;;;3.10;1.10;;;;;;;;;;5391955;25;80816;-60
2024/04/17 07:38:12;;;;;;;1.83;0.95;;;;;;;;;;5378020;26;79764;-59
2024/04/17 07:40:37;;;;;;;1.67;0.90;;;;;;;;;;5390618;25;80211;-57
2024/04/17 07:43:02;;;;;;;2.00;1.00;;;;;;;;;;5379666;26;80728;-59
2024/04/17 07:45:27;;;;;;;1.93;1.13;;;;;;;;;;5383253;26;81891;-59
2024/04/17 07:47:53;;;;;;;1.93;1.10;;;;;;;;;;5380573;26;80683;-58
2024/04/17 07:50:18;;;;;;;3.63;1.00;;;;;;;;;;5382203;25;81175;-61
2024/04/17 07:52:43;;;;;;;2.00;0.70;;;;;;;;;;5376858;26;80716;-56
2024/04/17 07:55:09;;;;;;;2.47;1.02;;;;;;;;;;5382730;26;80727;-61
2024/04/17 07:57:34;;;;;;;2.77;1.27;;;;;;;;;;5378562;26;80561;-56
2024/04/17 08:00:00;;;;;;;2.47;1.00;;;;;;;;;;5386853;25;80283;-60
2024/04/17 08:02:25;;;;;;;1.10;0.80;;;;;;;;;;5375972;26;79661;-62
2024/04/17 08:04:50;;;;;;;1.43;0.83;;;;;;;;;;5375364;26;82612;-56
2024/04/17 08:07:15;;;;;;;1.87;1.10;;;;;;;;;;5354168;26;81600;-63
2024/04/17 08:09:41;;;;;;;0.60;0.60;;;;;;;;;;5383792;25;81492;-60
2024/04/17 08:12:06;;;;;;;1.80;0.82;;;;;;;;;;5384359;26;80733;-59
2024/04/17 08:14:32;;;;;;;1.00;0.70;;;;;;;;;;5383125;26;80190;-55
2024/04/17 08:16:57;;;;;;;1.13;0.87;;;;;;;;;;5380891;26;80764;-60
2024/04/17 08:19:22;;;;;;;1.63;1.00;;;;;;;;;;5379211;26;81134;-58
2024/04/17 08:21:47;;;;;;;2.70;1.20;;;;;;;;;;5385685;26;80427;-60
2024/04/17 08:24:14;;;;;;;3.77;0.87;;;;;;;;;;5389305;26;80615;-58
2024/04/17 08:26:39;;;;;;;4.53;1.10;;;;;;;;;;5381809;26;79979;-59
2024/04/17 08:29:04;;;;;;;3.60;1.10;;;;;;;;;;5386730;25;80432;-59
2024/04/17 08:31:29;;;;;;;2.13;1.23;;;;;;;;;;5439994;25;81490;-56
2024/04/17 08:33:55;;;;;;;3.23;0.80;;;;;;;;;;5383032;26;81188;-58
2024/04/17 08:36:20;;;;;;;2.07;1.10;;;;;;;;;;5384264;26;80824;-59
2024/04/17 08:38:45;;;;;;;1.10;0.90;;;;;;;;;;5380486;26;80315;-60
2024/04/17 08:41:10;;;;;;;4.40;1.20;;;;;;;;;;5378283;26;80649;-57
2024/04/17 08:43:36;;;;;;;4.63;1.37;;;;;;;;;;5377686;26;80718;-56
2024/04/17 08:46:02;;;;;;;5.37;1.10;;;;;;;;;;5384004;26;80767;-57
2024/04/17 08:48:28;;;;;;;5.70;1.97;;;;;;;;;;5380962;26;80833;-56
2024/04/17 08:50:54;;;;;;;2.55;0.85;;;;;;;;;;5382342;25;80835;-59
2024/04/17 08:53:20;;;;;;;2.33;0.93;;;;;;;;;;5383560;26;80125;-60
2024/04/17 08:55:46;;;;;;;1.30;0.90;;;;;;;;;;5384147;26;81300;-58
2024/04/17 08:58:12;;;;;;;2.27;1.03;;;;;;;;;;5384785;25;81868;-60
2024/04/17 09:00:38;;;;;;;1.60;1.00;;;;;;;;;;5387367;26;80583;-60
2024/04/17 09:03:07;;;;;;;1.17;0.88;;;;;;;;;;5389315;25;80348;-58
2024/04/17 09:05:32;;;;;;;2.53;1.00;;;;;;;;;;5381268;26;80661;-58
2024/04/17 09:07:58;;;;;;;3.08;1.08;;;;;;;;;;5387952;26;80763;-59
2024/04/17 09:10:24;;;;;;;2.00;0.97;;;;;;;;;;5388315;25;80309;-60
2024/04/17 09:12:49;;;;;;;1.80;0.90;;;;;;;;;;5383744;26;80435;-59
2024/04/17 09:15:15;;;;;;;3.33;0.97;;;;;;;;;;5387011;26;79846;-58
2024/04/17 09:17:41;;;;;;;2.00;1.20;;;;;;;;;;5382070;26;80907;-59
2024/04/17 09:20:07;;;;;;;2.23;1.10;;;;;;;;;;5383924;25;80860;-56
2024/04/17 09:22:32;;;;;;;1.35;0.82;;;;;;;;;;5386107;26;82675;-58
2024/04/17 09:24:57;;;;;;;1.15;0.75;;;;;;;;;;5387528;25;80242;-56
2024/04/17 09:27:23;;;;;;;2.33;1.03;;;;;;;;;;5390556;25;80331;-56
2024/04/17 09:29:48;;;;;;;4.73;0.83;;;;;;;;;;5386858;26;80698;-65
2024/04/17 09:32:18;;;;;;;3.70;0.73;;;;;;;;;;5443122;25;82365;-54
2024/04/17 09:34:43;;;;;;;1.17;0.83;;;;;;;;;;5379417;26;82518;-58
2024/04/17 09:37:10;;;;;;;4.20;1.20;;;;;;;;;;5390556;25;80134;-56
2024/04/17 09:39:35;;;;;;;2.33;0.85;;;;;;;;;;5378925;26;79950;-56
2024/04/17 09:42:03;;;;;;;2.17;1.07;;;;;;;;;;5381584;26;81624;-60
2024/04/17 09:44:29;;;;;;;5.57;1.33;;;;;;;;;;5380667;26;80658;-60
2024/04/17 09:46:56;;;;;;;6.70;1.17;;;;;;;;;;5390689;25;81196;-58
2024/04/17 09:49:24;;;;;;;9.50;1.45;;;;;;;;;;5380306;26;81793;-54
2024/04/17 09:51:53;;;;;;;6.13;1.23;;;;;;;;;;5379871;26;80597;-55
2024/04/17 09:54:19;;;;;;;3.40;1.10;;;;;;;;;;5383059;26;80334;-61
2024/04/17 09:56:44;;;;;;;3.57;1.60;;;;;;;;;;5386671;25;80951;-57
2024/04/17 09:59:10;;;;;;;3.35;1.05;;;;;;;;;;5380333;25;80968;-64
2024/04/17 10:01:38;;;;;;;2.33;0.90;;;;;;;;;;5390968;26;81944;-56
2024/04/17 10:04:05;;;;;;;4.57;1.20;;;;;;;;;;5386479;26;80313;-58
2024/04/17 10:06:31;;;;;;;1.77;0.70;;;;;;;;;;5386325;26;81411;-58
2024/04/17 10:08:57;;;;;;;1.23;1.00;;;;;;;;;;5383177;26;80447;-56
2024/04/17 10:11:22;;;;;;;3.03;0.85;;;;;;;;;;5382118;26;81499;-55
2024/04/17 10:13:48;;;;;;;2.80;0.60;;;;;;;;;;5385407;26;80406;-55
2024/04/17 10:16:13;;;;;;;2.60;0.90;;;;;;;;;;5381977;26;80839;-58
2024/04/17 10:18:38;;;;;;;1.35;0.68;;;;;;;;;;5377297;26;80033;-61
2024/04/17 10:21:04;;;;;;;1.90;0.93;;;;;;;;;;5379907;25;80867;-59
2024/04/17 10:23:29;;;;;;;1.87;0.90;;;;;;;;;;5384868;25;81452;-55
2024/04/17 10:25:58;;;;;;;3.67;0.93;;;;;;;;;;5380081;26;80383;-56
2024/04/17 10:28:24;;;;;;;5.82;1.13;;;;;;;;;;5383245;26;79738;-57
2024/04/17 10:30:51;;;;;;;6.65;1.10;;;;;;;;;;5383535;25;80381;-58
2024/04/17 10:33:25;;;;;;;2.87;1.00;;;;;;;;;;5389267;25;80639;-58
2024/04/17 10:35:52;;;;;;;3.90;0.85;;;;;;;;;;5382548;26;81212;-57
2024/04/17 10:38:17;;;;;;;5.10;1.00;;;;;;;;;;5379470;25;80508;-55
2024/04/17 10:40:42;;;;;;;1.70;0.70;;;;;;;;;;5379399;26;80881;-55
2024/04/17 10:43:08;;;;;;;6.90;1.07;;;;;;;;;;5383723;25;80803;-57
2024/04/17 10:45:33;;;;;;;8.67;1.60;;;;;;;;;;5384504;26;80817;-57
2024/04/17 10:47:59;;;;;;;2.13;1.07;;;;;;;;;;5382915;26;80593;-59
2024/04/17 10:50:25;;;;;;;3.88;1.23;;;;;;;;;;5383452;26;81009;-57
2024/04/17 10:52:52;;;;;;;2.67;1.20;;;;;;;;;;5378304;26;80329;-55
2024/04/17 10:55:17;;;;;;;4.13;1.95;;;;;;;;;;5394105;25;80957;-61
2024/04/17 10:57:42;;;;;;;4.63;1.23;;;;;;;;;;5385134;26;80172;-61
2024/04/17 11:00:09;;;;;;;2.58;1.20;;;;;;;;;;5379542;26;81071;-57
2024/04/17 11:02:34;;;;;;;5.77;1.50;;;;;;;;;;5384769;26;80961;-57
2024/04/17 11:05:00;;;;;;;1.90;1.00;;;;;;;;;;5380339;26;80361;-57
2024/04/17 11:07:25;;;;;;;3.40;0.70;;;;;;;;;;5375038;26;80246;-52
2024/04/17 11:09:51;;;;;;;0.87;0.60;;;;;;;;;;5378214;25;82381;-58
2024/04/17 11:12:17;;;;;;;2.65;0.73;;;;;;;;;;5393147;25;81811;-58
2024/04/17 11:14:43;;;;;;;1.10;0.83;;;;;;;;;;5377278;26;80233;-61
2024/04/17 11:17:08;;;;;;;3.78;0.93;;;;;;;;;;5381755;26;80044;-55
2024/04/17 11:19:34;;;;;;;2.28;1.15;;;;;;;;;;5377791;26;80282;-55
2024/04/17 11:22:05;;;;;;;3.80;0.80;;;;;;;;;;5377045;26;80960;-61
2024/04/17 11:24:32;;;;;;;1.50;0.80;;;;;;;;;;5377463;26;81248;-58
2024/04/17 11:26:57;;;;;;;6.43;1.08;;;;;;;;;;5385636;26;80720;-54
2024/04/17 11:29:22;;;;;;;2.83;0.83;;;;;;;;;;5389638;25;81606;-59
2024/04/17 11:31:48;;;;;;;2.50;1.10;;;;;;;;;;5382330;26;80544;-59
2024/04/17 11:34:23;;;;;;;1.37;0.80;;;;;;;;;;5390917;25;80402;-59
2024/04/17 11:36:49;;;;;;;6.90;0.98;;;;;;;;;;5392489;26;80264;-55
2024/04/17 11:39:17;;;;;;;1.42;0.70;;;;;;;;;;5380694;26;80570;-59
2024/04/17 11:41:42;;;;;;;2.30;0.88;;;;;;;;;;5387284;26;80524;-56
2024/04/17 11:44:10;;;;;;;1.03;0.70;;;;;;;;;;5387597;26;80717;-58
2024/04/17 11:46:39;;;;;;;1.52;0.73;;;;;;;;;;5388182;26;81056;-60
2024/04/17 11:49:05;;;;;;;1.00;0.70;;;;;;;;;;5381394;26;81548;-57
2024/04/17 11:51:31;;;;;;;0.93;0.77;;;;;;;;;;5390063;25;81017;-62
2024/04/17 11:53:56;;;;;;;2.90;0.87;;;;;;;;;;5384244;25;80388;-58
2024/04/17 11:56:21;;;;;;;0.50;0.30;;;;;;;;;;5390433;25;80797;-63
2024/04/17 11:58:46;;;;;;;0.77;0.60;;;;;;;;;;5382701;26;80343;-59
2024/04/17 12:01:12;;;;;;;0.83;0.50;;;;;;;;;;5385844;25;80798;-57
2024/04/17 12:03:37;;;;;;;0.60;0.40;;;;;;;;;;5389053;26;81441;-59
2024/04/17 12:06:03;;;;;;;0.70;0.70;;;;;;;;;;5394697;26;79881;-59
2024/04/17 12:08:28;;;;;;;2.10;0.40;;;;;;;;;;5379805;26;80925;-57
2024/04/17 12:10:53;;;;;;;1.03;0.60;;;;;;;;;;5394165;25;80424;-57
2024/04/17 12:13:18;;;;;;;0.90;0.47;;;;;;;;;;5390750;25;81291;-57
2024/04/17 12:15:44;;;;;;;6.10;0.50;;;;;;;;;;5377436;25;80585;-57
2024/04/17 12:18:09;;;;;;;0.55;0.43;;;;;;;;;;5379013;26;80501;-57
2024/04/17 12:20:34;;;;;;;5.90;0.63;;;;;;;;;;5381237;26;80972;-57
2024/04/17 12:22:59;;;;;;;2.27;0.50;;;;;;;;;;5386275;26;80408;-59
2024/04/17 12:28:08;;;;;;;7.03;2.07;;;;;;;;;;5380034;26;85994;-57
2024/04/17 12:30:34;;;;;;;2.70;1.30;;;;;;;;;;5373758;26;85308;-58
2024/04/17 12:32:59;;;;;;;2.20;1.20;;;;;;;;;;5380627;26;85446;-56
2024/04/17 12:35:24;;;;;;;1.00;0.77;;;;;;;;;;5385314;26;85243;-56
2024/04/17 12:37:49;;;;;;;1.93;1.20;;;;;;;;;;5383019;26;86712;-58
2024/04/17 12:40:15;;;;;;;7.97;1.10;;;;;;;;;;5378284;26;86169;-55
2024/04/17 12:42:40;;;;;;;2.83;0.77;;;;;;;;;;5385022;26;85757;-57
2024/04/17 12:45:05;;;;;;;3.70;1.73;;;;;;;;;;5385045;26;85845;-53
2024/04/17 12:47:30;;;;;;;4.07;1.50;;;;;;;;;;5383857;26;85653;-58
2024/04/17 12:49:56;;;;;;;1.10;0.80;;;;;;;;;;5393539;25;86825;-56
2024/04/17 12:52:21;;;;;;;1.97;1.23;;;;;;;;;;5389399;26;85881;-57
2024/04/17 12:54:46;;;;;;;1.60;0.83;;;;;;;;;;5396221;26;84933;-57
2024/04/17 12:57:11;;;;;;;4.90;1.05;;;;;;;;;;5383726;26;85181;-54
2024/04/17 12:59:37;;;;;;;1.90;0.80;;;;;;;;;;5389203;26;85700;-57
2024/04/17 13:02:02;;;;;;;2.73;0.83;;;;;;;;;;5382304;26;86499;-61
2024/04/17 13:04:27;;;;;;;1.73;0.97;;;;;;;;;;5393905;26;85413;-56
2024/04/17 13:06:52;;;;;;;2.30;1.20;;;;;;;;;;5390806;26;86082;-58
2024/04/17 13:09:18;;;;;;;3.60;0.65;;;;;;;;;;5379327;26;85374;-59
2024/04/17 13:11:43;;;;;;;2.00;0.90;;;;;;;;;;5379478;26;85443;-57
2024/04/17 13:14:08;;;;;;;1.40;0.50;;;;;;;;;;5386494;26;85835;-56
2024/04/17 13:16:33;;;;;;;2.10;0.50;;;;;;;;;;5377191;26;85676;-55
2024/04/17 13:18:59;;;;;;;1.37;0.73;;;;;;;;;;5380779;25;85323;-56
2024/04/17 13:21:24;;;;;;;2.00;0.87;;;;;;;;;;5386223;26;85229;-56
2024/04/17 13:23:49;;;;;;;2.20;0.70;;;;;;;;;;5385862;26;85226;-59
2024/04/17 13:26:14;;;;;;;0.90;0.70;;;;;;;;;;5379734;26;86032;-54
2024/04/17 13:28:39;;;;;;;4.63;0.90;;;;;;;;;;5375483;26;85834;-59
2024/04/17 13:31:06;;;;;;;1.47;0.53;;;;;;;;;;5379626;26;85360;-56
2024/04/17 13:33:32;;;;;;;1.52;0.93;;;;;;;;;;5379666;26;85649;-59
2024/04/17 13:35:57;;;;;;;1.80;0.68;;;;;;;;;;5385205;26;85754;-55
2024/04/17 13:38:23;;;;;;;0.60;0.30;;;;;;;;;;5390154;26;85989;-59
2024/04/17 13:40:54;;;;;;;1.30;0.52;;;;;;;;;;5376152;26;85901;-57
2024/04/17 13:43:19;;;;;;;2.83;0.75;;;;;;;;;;5390418;25;84446;-56
2024/04/17 13:45:44;;;;;;;1.13;0.70;;;;;;;;;;5393002;26;85695;-55
2024/04/17 13:48:10;;;;;;;2.07;0.57;;;;;;;;;;5384159;26;85161;-56
2024/04/17 13:50:35;;;;;;;1.37;0.70;;;;;;;;;;5385192;26;86805;-54
2024/04/17 13:53:00;;;;;;;2.33;0.77;;;;;;;;;;5390585;26;85871;-58
2024/04/17 13:55:31;;;;;;;2.30;0.37;;;;;;;;;;5386714;26;85677;-54
2024/04/17 13:57:57;;;;;;;1.00;0.60;;;;;;;;;;5395930;25;86401;-55
2024/04/17 14:00:23;;;;;;;3.03;1.03;;;;;;;;;;5383584;25;85164;-55
2024/04/17 14:02:48;;;;;;;1.77;0.70;;;;;;;;;;5392414;25;85308;-56
2024/04/17 14:05:13;;;;;;;2.70;0.80;;;;;;;;;;5381037;26;85689;-55
2024/04/17 14:07:38;;;;;;;2.60;0.60;;;;;;;;;;5393235;25;85188;-58
2024/04/17 14:10:04;;;;;;;1.20;0.40;;;;;;;;;;5372484;26;86876;-58
2024/04/17 14:12:29;;;;;;;1.70;0.90;;;;;;;;;;5377497;26;85018;-56
2024/04/17 14:14:54;;;;;;;0.90;0.40;;;;;;;;;;5376119;26;86109;-61
2024/04/17 14:17:20;;;;;;;0.70;0.30;;;;;;;;;;5383261;26;86932;-56
2024/04/17 14:19:45;;;;;;;2.80;0.40;;;;;;;;;;5382738;25;86626;-60
2024/04/17 14:22:10;;;;;;;1.93;0.30;;;;;;;;;;5376309;26;85429;-55
2024/04/17 14:24:35;;;;;;;0.53;0.53;;;;;;;;;;5380205;26;85640;-57
2024/04/17 14:27:01;;;;;;;2.00;0.60;;;;;;;;;;5387811;26;85358;-54
2024/04/17 14:29:27;;;;;;;0.70;0.40;;;;;;;;;;5388901;25;85287;-61
2024/04/17 14:31:52;;;;;;;0.33;0.23;;;;;;;;;;5376842;26;85276;-54
2024/04/17 14:34:17;;;;;;;0.30;0.30;;;;;;;;;;5378564;26;85214;-59